createdAt,value
2023-12-30T00:00:18.546Z,52.88
2023-12-30T00:02:50.948Z,42.17
2023-12-30T00:05:18.276Z,43.90
2023-12-30T00:07:45.744Z,37.15
2023-12-30T00:10:13.997Z,32.35
2023-12-30T00:12:41.369Z,34.38
2023-12-30T00:15:09.657Z,52.42
2023-12-30T00:17:37.516Z,38.78
2023-12-30T00:20:05.388Z,45.17
2023-12-30T00:22:32.865Z,42.45
2023-12-30T00:25:00.118Z,44.00
2023-12-30T00:27:27.576Z,58.75
2023-12-30T00:29:55.186Z,89.72
2023-12-30T00:32:22.438Z,65.43
2023-12-30T00:34:50.873Z,75.15
2023-12-30T00:37:21.690Z,60.80
2023-12-30T00:39:49.318Z,62.65
2023-12-30T00:42:17.817Z,68.93
2023-12-30T00:44:46.086Z,69.53
2023-12-30T00:47:14.977Z,53.08
2023-12-30T00:49:42.586Z,52.60
2023-12-30T00:52:10.049Z,52.92
2023-12-30T00:54:41.311Z,59.25
2023-12-30T00:57:16.250Z,43.72
2023-12-30T00:59:43.837Z,46.50
2023-12-30T01:02:11.051Z,53.17
2023-12-30T01:04:38.328Z,55.70
2023-12-30T01:07:06.428Z,49.25
2023-12-30T01:09:33.581Z,50.53
2023-12-30T01:12:01.022Z,45.30
2023-12-30T01:14:28.176Z,47.88
2023-12-30T01:16:55.294Z,51.13
2023-12-30T01:19:24.900Z,54.50
2023-12-30T01:21:52.525Z,51.78
2023-12-30T01:24:19.796Z,61.08
2023-12-30T01:26:46.995Z,60.35
2023-12-30T01:29:14.245Z,53.85
2023-12-30T01:31:41.877Z,49.88
2023-12-30T01:34:09.322Z,51.67
2023-12-30T01:36:36.947Z,44.30
2023-12-30T01:39:04.787Z,77.30
2023-12-30T01:41:32.871Z,73.88
2023-12-30T01:44:00.914Z,78.78
2023-12-30T01:46:29.406Z,56.97
2023-12-30T01:48:56.913Z,51.35
2023-12-30T01:51:26.874Z,51.58
2023-12-30T01:53:57.515Z,56.28
2023-12-30T01:56:26.008Z,61.63
2023-12-30T01:58:53.865Z,45.30
2023-12-30T02:01:30.086Z,50.38
2023-12-30T02:03:57.613Z,48.65
2023-12-30T02:06:25.162Z,43.60
2023-12-30T02:08:53.041Z,52.25
2023-12-30T02:11:20.849Z,42.75
2023-12-30T02:13:48.364Z,43.67
2023-12-30T02:16:15.744Z,81.95
2023-12-30T02:18:43.018Z,71.40
2023-12-30T02:21:10.382Z,96.50
2023-12-30T02:23:37.574Z,91.55
2023-12-30T02:26:08.856Z,79.68
2023-12-30T02:28:36.473Z,78.60
2023-12-30T02:31:05.808Z,67.40
2023-12-30T02:33:33.645Z,71.82
2023-12-30T02:36:00.794Z,69.13
2023-12-30T02:38:27.938Z,68.95
2023-12-30T02:40:55.313Z,61.38
2023-12-30T02:43:25.702Z,65.65
2023-12-30T02:45:53.201Z,68.85
2023-12-30T02:48:20.463Z,65.40
2023-12-30T02:50:47.706Z,65.00
2023-12-30T02:53:14.812Z,56.08
2023-12-30T02:55:41.958Z,61.25
2023-12-30T02:58:09.774Z,59.47
2023-12-30T03:00:38.108Z,69.18
2023-12-30T03:03:05.457Z,61.58
2023-12-30T03:05:34.371Z,69.45
2023-12-30T03:08:01.670Z,67.55
2023-12-30T03:10:28.952Z,81.25
2023-12-30T03:12:56.350Z,69.88
2023-12-30T03:15:23.864Z,68.07
2023-12-30T03:17:51.173Z,66.15
2023-12-30T03:20:19.278Z,69.20
2023-12-30T03:22:46.507Z,64.85
2023-12-30T03:25:14.251Z,73.90
2023-12-30T03:27:41.335Z,65.55
2023-12-30T03:30:10.363Z,74.57
2023-12-30T03:32:38.780Z,67.13
2023-12-30T03:35:07.738Z,66.65
2023-12-30T03:37:35.304Z,66.70
2023-12-30T03:40:02.748Z,59.45
2023-12-30T03:42:30.558Z,57.20
2023-12-30T03:44:58.912Z,62.78
2023-12-30T03:47:26.095Z,64.30
2023-12-30T03:49:53.387Z,58.90
2023-12-30T03:52:20.585Z,67.05
2023-12-30T03:54:48.588Z,71.63
2023-12-30T03:57:16.413Z,68.50
2023-12-30T03:59:43.679Z,73.75
2023-12-30T04:02:10.801Z,62.40
2023-12-30T04:04:38.045Z,69.10
2023-12-30T04:07:05.353Z,66.18
2023-12-30T04:09:32.440Z,66.82
2023-12-30T04:11:59.628Z,65.93
2023-12-30T04:14:27.538Z,71.10
2023-12-30T04:16:54.698Z,67.32
2023-12-30T04:19:25.928Z,67.82
2023-12-30T04:21:53.528Z,65.35
2023-12-30T04:24:20.785Z,61.08
2023-12-30T04:26:48.671Z,63.40
2023-12-30T04:29:15.859Z,55.08
2023-12-30T04:31:43.338Z,58.28
2023-12-30T04:34:11.291Z,58.25
2023-12-30T04:36:38.840Z,59.70
2023-12-30T04:39:06.099Z,58.95
2023-12-30T04:41:33.362Z,55.20
2023-12-30T04:44:01.731Z,55.40
2023-12-30T04:46:29.321Z,64.68
2023-12-30T04:48:56.691Z,60.83
2023-12-30T04:51:24.441Z,61.75
2023-12-30T04:53:51.619Z,54.17
2023-12-30T04:56:19.160Z,61.15
2023-12-30T04:58:46.378Z,59.55
2023-12-30T05:01:13.721Z,55.63
2023-12-30T05:03:44.622Z,54.70
2023-12-30T05:06:26.427Z,51.30
2023-12-30T05:08:54.440Z,51.55
2023-12-30T05:11:24.796Z,45.67
2023-12-30T05:13:52.468Z,48.92
2023-12-30T05:16:19.950Z,42.78
2023-12-30T05:18:47.649Z,43.22
2023-12-30T05:21:18.012Z,41.00
2023-12-30T05:23:45.681Z,38.28
2023-12-30T05:26:15.956Z,43.30
2023-12-30T05:28:43.451Z,40.50
2023-12-30T05:31:10.875Z,42.83
2023-12-30T05:33:38.358Z,40.17
2023-12-30T05:36:05.850Z,38.63
2023-12-30T05:38:33.265Z,38.28
2023-12-30T05:41:00.480Z,42.38
2023-12-30T05:43:27.799Z,40.00
2023-12-30T05:45:55.281Z,41.28
2023-12-30T05:48:22.666Z,39.65
2023-12-30T05:50:49.902Z,40.70
2023-12-30T05:53:17.096Z,40.22
2023-12-30T05:55:44.444Z,39.55
2023-12-30T05:58:11.664Z,47.47
2023-12-30T06:00:38.888Z,41.15
2023-12-30T06:03:06.500Z,49.78
2023-12-30T06:05:34.516Z,49.80
2023-12-30T06:08:01.678Z,49.58
2023-12-30T06:10:28.807Z,49.30
2023-12-30T06:12:56.001Z,45.30
2023-12-30T06:15:23.353Z,47.22
2023-12-30T06:17:50.465Z,48.25
2023-12-30T06:20:19.103Z,47.38
2023-12-30T06:22:46.269Z,47.63
2023-12-30T06:25:13.763Z,41.97
2023-12-30T06:27:41.878Z,41.40
2023-12-30T06:30:09.597Z,42.60
2023-12-30T06:32:37.007Z,41.70
2023-12-30T06:35:04.704Z,40.25
2023-12-30T06:37:31.905Z,43.83
2023-12-30T06:39:59.125Z,43.42
2023-12-30T06:42:26.304Z,42.78
2023-12-30T06:44:53.422Z,53.15
2023-12-30T06:47:20.639Z,51.83
2023-12-30T06:49:47.983Z,46.83
2023-12-30T06:52:16.191Z,53.67
2023-12-30T06:54:43.367Z,58.78
2023-12-30T06:57:10.720Z,43.45
2023-12-30T06:59:37.999Z,47.47
2023-12-30T07:02:05.119Z,43.05
2023-12-30T07:04:32.433Z,48.90
2023-12-30T07:06:59.706Z,53.10
2023-12-30T07:09:27.877Z,47.85
2023-12-30T07:11:55.026Z,49.22
2023-12-30T07:14:22.295Z,52.33
2023-12-30T07:16:50.628Z,49.03
2023-12-30T07:19:17.802Z,41.60
2023-12-30T07:21:45.054Z,39.22
2023-12-30T07:24:12.524Z,48.95
2023-12-30T07:26:39.934Z,49.08
2023-12-30T07:29:07.636Z,44.20
2023-12-30T07:31:34.815Z,54.65
2023-12-30T07:34:02.755Z,54.75
2023-12-30T07:36:30.195Z,55.08
2023-12-30T07:38:57.385Z,46.45
2023-12-30T07:41:24.983Z,46.80
2023-12-30T07:43:52.325Z,47.13
2023-12-30T07:46:19.472Z,49.90
2023-12-30T07:48:46.645Z,48.03
2023-12-30T07:51:14.359Z,44.58
2023-12-30T07:53:41.489Z,46.15
2023-12-30T07:56:08.767Z,56.47
2023-12-30T07:58:37.335Z,63.63
2023-12-30T08:01:05.867Z,92.50
2023-12-30T08:03:33.402Z,62.45
2023-12-30T08:06:00.774Z,68.00
2023-12-30T08:08:27.870Z,50.58
2023-12-30T08:10:55.053Z,65.47
2023-12-30T08:13:22.296Z,62.60
2023-12-30T08:15:49.806Z,47.42
2023-12-30T08:18:17.228Z,57.38
2023-12-30T08:20:44.610Z,52.70
2023-12-30T08:23:13.107Z,48.72
2023-12-30T08:25:40.503Z,51.85
2023-12-30T08:28:07.941Z,43.92
2023-12-30T08:30:35.214Z,44.65
2023-12-30T08:33:08.911Z,44.35
2023-12-30T08:38:03.918Z,38.65
2023-12-30T08:40:33.165Z,38.70
2023-12-30T08:43:01.741Z,45.20
2023-12-30T08:45:29.238Z,37.78
2023-12-30T08:47:56.880Z,39.10
2023-12-30T08:50:24.087Z,34.15
2023-12-30T08:52:51.233Z,33.35
2023-12-30T08:55:19.710Z,31.75
2023-12-30T08:57:46.844Z,28.48
2023-12-30T09:00:15.340Z,29.23
2023-12-30T09:02:49.247Z,34.47
2023-12-30T09:05:19.871Z,38.30
2023-12-30T09:07:49.584Z,31.73
2023-12-30T09:10:19.688Z,35.30
2023-12-30T09:12:47.231Z,28.38
2023-12-30T09:15:14.669Z,28.13
2023-12-30T09:17:41.991Z,31.27
2023-12-30T09:20:09.970Z,25.80
2023-12-30T09:22:37.646Z,26.90
2023-12-30T09:25:05.522Z,23.55
2023-12-30T09:27:33.516Z,24.27
2023-12-30T09:30:00.796Z,28.00
2023-12-30T09:32:27.941Z,27.98
2023-12-30T09:34:56.109Z,22.83
2023-12-30T09:37:23.474Z,26.98
2023-12-30T09:39:50.605Z,26.55
2023-12-30T09:42:17.693Z,24.27
2023-12-30T09:44:47.181Z,23.90
2023-12-30T09:47:14.922Z,30.33
2023-12-30T09:49:43.742Z,21.50
2023-12-30T09:52:11.073Z,27.45
2023-12-30T09:54:48.086Z,27.38
2023-12-30T09:57:16.898Z,27.95
2023-12-30T09:59:46.502Z,29.13
2023-12-30T10:02:14.869Z,23.35
2023-12-30T10:04:42.196Z,25.90
2023-12-30T10:07:09.511Z,24.70
2023-12-30T10:09:36.732Z,22.90
2023-12-30T10:12:04.283Z,19.30
2023-12-30T10:14:32.784Z,23.83
2023-12-30T10:17:04.203Z,19.35
2023-12-30T10:19:31.741Z,17.75
2023-12-30T10:22:01.138Z,15.10
2023-12-30T10:24:28.292Z,21.65
2023-12-30T10:26:55.747Z,13.80
2023-12-30T10:29:23.042Z,18.95
2023-12-30T10:32:01.988Z,19.83
2023-12-30T10:34:29.187Z,20.95
2023-12-30T10:36:57.945Z,13.85
2023-12-30T10:39:26.576Z,19.08
2023-12-30T10:41:53.804Z,20.20
2023-12-30T10:44:20.980Z,17.45
2023-12-30T10:46:50.775Z,18.45
2023-12-30T10:49:23.248Z,21.05
2023-12-30T10:51:54.953Z,14.57
2023-12-30T10:54:30.063Z,16.05
2023-12-30T10:57:03.378Z,41.53
2023-12-30T10:59:31.055Z,18.45
2023-12-30T11:01:58.751Z,16.90
2023-12-30T11:04:27.396Z,17.52
2023-12-30T11:07:00.349Z,21.75
2023-12-30T11:09:30.933Z,20.23
2023-12-30T11:12:03.628Z,17.15
2023-12-30T11:14:30.971Z,17.77
2023-12-30T11:16:58.865Z,23.35
2023-12-30T11:19:31.228Z,17.90
2023-12-30T11:22:06.008Z,19.05
2023-12-30T11:24:34.740Z,21.45
2023-12-30T11:27:02.114Z,15.75
2023-12-30T11:29:29.962Z,17.40
2023-12-30T11:31:58.583Z,33.70
2023-12-30T11:34:26.440Z,20.50
2023-12-30T11:36:59.306Z,20.70
2023-12-30T11:39:33.322Z,21.10
2023-12-30T11:42:02.350Z,19.40
2023-12-30T11:44:29.858Z,17.10
2023-12-30T11:46:57.854Z,14.73
2023-12-30T11:49:27.236Z,16.25
2023-12-30T11:52:09.379Z,17.77
2023-12-30T11:54:39.122Z,18.45
2023-12-30T11:57:11.041Z,22.08
2023-12-30T11:59:39.450Z,17.15
2023-12-30T12:02:13.324Z,23.30
2023-12-30T12:04:42.112Z,17.05
2023-12-30T12:07:09.529Z,16.17
2023-12-30T12:09:39.223Z,21.13
2023-12-30T12:12:08.061Z,20.10
2023-12-30T12:14:35.818Z,17.30
2023-12-30T12:17:09.520Z,15.52
2023-12-30T12:19:39.018Z,20.00
2023-12-30T12:22:07.249Z,26.75
2023-12-30T12:24:34.799Z,19.90
2023-12-30T12:27:01.956Z,16.02
2023-12-30T12:29:30.071Z,14.57
2023-12-30T12:31:57.951Z,14.95
2023-12-30T12:34:27.070Z,18.10
2023-12-30T12:36:55.252Z,17.88
2023-12-30T12:39:22.460Z,19.20
2023-12-30T12:41:49.795Z,15.25
2023-12-30T12:44:17.670Z,15.13
2023-12-30T12:46:45.122Z,14.93
2023-12-30T12:49:12.551Z,20.23
2023-12-30T12:51:41.065Z,17.27
2023-12-30T12:54:08.252Z,18.55
2023-12-30T12:56:35.764Z,18.65
2023-12-30T12:59:02.940Z,17.63
2023-12-30T13:01:30.530Z,20.13
2023-12-30T13:03:59.649Z,15.55
2023-12-30T13:06:27.079Z,18.27
2023-12-30T13:08:57.356Z,19.77
2023-12-30T13:11:28.463Z,24.55
2023-12-30T13:13:57.143Z,19.33
2023-12-30T13:16:25.511Z,21.50
2023-12-30T13:18:53.607Z,18.58
2023-12-30T13:21:21.208Z,20.80
2023-12-30T13:23:51.939Z,30.63
2023-12-30T13:26:22.222Z,31.10
2023-12-30T13:28:49.568Z,23.17
2023-12-30T13:31:23.421Z,25.75
2023-12-30T13:33:51.727Z,25.33
2023-12-30T13:36:19.205Z,26.25
2023-12-30T13:38:53.083Z,24.25
2023-12-30T13:41:24.879Z,21.65
2023-12-30T13:43:54.497Z,22.45
2023-12-30T13:46:36.881Z,26.13
2023-12-30T13:49:04.507Z,20.17
2023-12-30T13:51:31.631Z,20.55
2023-12-30T13:54:00.990Z,25.13
2023-12-30T13:56:29.077Z,27.77
2023-12-30T13:58:59.017Z,34.33
2023-12-30T14:01:26.880Z,29.23
2023-12-30T14:03:55.926Z,25.38
2023-12-30T14:06:30.743Z,22.67
2023-12-30T14:08:58.291Z,29.55
2023-12-30T14:11:45.244Z,28.20
2023-12-30T14:14:13.362Z,32.70
2023-12-30T14:16:40.804Z,27.83
2023-12-30T14:19:08.064Z,28.92
2023-12-30T14:21:37.514Z,29.40
2023-12-30T14:24:05.660Z,30.48
2023-12-30T14:26:32.782Z,32.63
2023-12-30T14:29:01.073Z,29.60
2023-12-30T14:31:28.224Z,33.33
2023-12-30T14:33:55.681Z,31.23
2023-12-30T14:36:23.847Z,29.42
2023-12-30T14:38:51.417Z,34.28
2023-12-30T14:41:18.755Z,39.63
2023-12-30T14:43:51.261Z,40.55
2023-12-30T14:46:19.264Z,34.55
2023-12-30T14:48:46.549Z,29.73
2023-12-30T14:51:14.067Z,44.55
2023-12-30T14:53:42.648Z,36.72
2023-12-30T14:56:10.660Z,38.35
2023-12-30T14:58:38.044Z,35.15
2023-12-30T15:01:07.830Z,31.25
2023-12-30T15:03:35.017Z,33.22
2023-12-30T15:06:03.922Z,38.05
2023-12-30T15:08:34.128Z,43.00
2023-12-30T15:11:01.916Z,31.85
2023-12-30T15:13:29.128Z,30.80
2023-12-30T15:15:56.251Z,45.45
2023-12-30T15:18:26.217Z,32.20
2023-12-30T15:20:53.537Z,40.75
2023-12-30T15:23:21.455Z,33.67
2023-12-30T15:25:48.873Z,31.38
2023-12-30T15:28:16.049Z,31.13
2023-12-30T15:30:43.879Z,34.70
2023-12-30T15:33:12.031Z,34.45
2023-12-30T15:35:40.618Z,38.00
2023-12-30T15:38:08.293Z,31.60
2023-12-30T15:40:36.182Z,33.83
2023-12-30T15:43:06.302Z,37.03
2023-12-30T15:45:35.629Z,32.58
2023-12-30T15:48:03.056Z,37.42
2023-12-30T15:50:30.370Z,31.73
2023-12-30T15:52:59.016Z,27.70
2023-12-30T15:55:26.318Z,31.17
2023-12-30T15:57:53.973Z,32.78
2023-12-30T16:00:22.288Z,32.22
2023-12-30T16:02:49.653Z,35.25
2023-12-30T16:05:17.588Z,35.60
2023-12-30T16:07:45.084Z,33.92
2023-12-30T16:10:12.452Z,36.92
2023-12-30T16:12:40.334Z,39.13
2023-12-30T16:15:08.430Z,42.70
2023-12-30T16:17:35.705Z,39.90
2023-12-30T16:20:03.285Z,36.20
2023-12-30T16:22:30.827Z,36.53
2023-12-30T16:24:58.274Z,36.53
2023-12-30T16:27:25.566Z,35.85
2023-12-30T16:29:53.377Z,34.80
2023-12-30T16:32:21.340Z,36.67
2023-12-30T16:34:48.557Z,38.33
2023-12-30T16:37:16.896Z,33.72
2023-12-30T16:39:46.867Z,39.25
2023-12-30T16:42:14.808Z,37.83
2023-12-30T16:44:42.013Z,37.17
2023-12-30T16:47:09.154Z,37.38
2023-12-30T16:49:36.519Z,42.53
2023-12-30T16:52:04.067Z,39.38
2023-12-30T16:54:32.542Z,39.85
2023-12-30T16:56:59.658Z,38.28
2023-12-30T16:59:26.911Z,40.90
2023-12-30T17:01:54.153Z,41.28
2023-12-30T17:04:23.205Z,37.15
2023-12-30T17:06:50.567Z,33.92
2023-12-30T17:09:17.716Z,40.58
2023-12-30T17:11:45.182Z,42.25
2023-12-30T17:14:14.668Z,42.50
2023-12-30T17:16:42.274Z,43.45
2023-12-30T17:19:11.019Z,43.92
2023-12-30T17:21:38.629Z,42.33
2023-12-30T17:24:06.227Z,50.03
2023-12-30T17:26:34.790Z,56.53
2023-12-30T17:29:03.061Z,68.80
2023-12-30T17:31:30.274Z,62.42
2023-12-30T17:33:57.658Z,76.05
2023-12-30T17:36:26.332Z,97.40
2023-12-30T17:38:53.729Z,99.75
2023-12-30T17:41:20.989Z,74.07
2023-12-30T17:43:48.479Z,59.33
2023-12-30T17:46:15.708Z,74.90
2023-12-30T17:48:43.001Z,75.72
2023-12-30T17:51:10.833Z,85.53
2023-12-30T17:53:37.986Z,80.25
2023-12-30T17:56:05.475Z,95.57
2023-12-30T17:58:32.627Z,90.88
2023-12-30T18:00:59.756Z,186.32
2023-12-30T18:03:27.311Z,139.90
2023-12-30T18:05:54.470Z,155.95
2023-12-30T18:08:22.087Z,200.82
2023-12-30T18:10:49.285Z,300.88
2023-12-30T18:13:16.877Z,188.07
2023-12-30T18:15:44.040Z,160.60
2023-12-30T18:18:12.265Z,139.95
2023-12-30T18:20:39.495Z,120.60
2023-12-30T18:23:06.661Z,134.23
2023-12-30T18:25:36.042Z,114.07
2023-12-30T18:28:03.919Z,108.97
2023-12-30T18:30:31.173Z,99.93
2023-12-30T18:32:59.171Z,96.63
2023-12-30T18:35:26.344Z,85.93
2023-12-30T18:37:53.711Z,90.35
2023-12-30T18:40:21.288Z,81.03
2023-12-30T18:42:48.379Z,79.90
2023-12-30T18:45:16.028Z,80.32
2023-12-30T18:47:43.643Z,85.00
2023-12-30T18:50:11.001Z,94.10
2023-12-30T18:52:38.444Z,92.43
2023-12-30T18:55:06.318Z,98.00
2023-12-30T18:57:34.236Z,89.70
2023-12-30T19:00:01.349Z,100.50
2023-12-30T19:02:31.167Z,141.40
2023-12-30T19:04:59.337Z,126.60
2023-12-30T19:07:27.299Z,126.43
2023-12-30T19:09:54.484Z,117.30
2023-12-30T19:12:21.880Z,115.93
2023-12-30T19:14:49.250Z,123.25
2023-12-30T19:17:16.442Z,153.00
2023-12-30T19:19:43.726Z,161.55
2023-12-30T19:22:12.809Z,153.88
2023-12-30T19:24:40.149Z,147.38
2023-12-30T19:27:07.283Z,141.15
2023-12-30T19:29:34.844Z,127.88
2023-12-30T19:32:02.316Z,130.90
2023-12-30T19:34:30.117Z,129.60
2023-12-30T19:36:57.377Z,117.20
2023-12-30T19:39:24.515Z,99.70
2023-12-30T19:41:51.655Z,82.20
2023-12-30T19:44:18.949Z,94.60
2023-12-30T19:46:46.391Z,98.30
2023-12-30T19:49:16.478Z,99.63
2023-12-30T19:51:44.047Z,115.57
2023-12-30T19:54:12.382Z,104.88
2023-12-30T19:56:39.744Z,118.60
2023-12-30T19:59:07.515Z,128.45
2023-12-30T20:01:34.708Z,125.32
2023-12-30T20:04:03.597Z,147.68
2023-12-30T20:06:30.936Z,134.20
2023-12-30T20:08:58.381Z,151.45
2023-12-30T20:11:28.525Z,155.48
2023-12-30T20:13:56.106Z,136.25
2023-12-30T20:16:23.241Z,130.60
2023-12-30T20:18:51.513Z,125.93
2023-12-30T20:21:18.864Z,126.93
2023-12-30T20:23:46.031Z,132.23
2023-12-30T20:26:13.310Z,119.40
2023-12-30T20:28:40.408Z,115.80
2023-12-30T20:31:07.996Z,111.85
2023-12-30T20:33:37.567Z,115.22
2023-12-30T20:36:07.097Z,99.20
2023-12-30T20:38:35.614Z,98.93
2023-12-30T20:41:03.232Z,102.07
2023-12-30T20:43:30.461Z,106.90
2023-12-30T20:45:57.677Z,105.78
2023-12-30T20:48:24.981Z,107.63
2023-12-30T20:50:52.336Z,116.40
2023-12-30T20:53:19.540Z,127.18
2023-12-30T20:55:46.911Z,122.43
2023-12-30T20:58:14.349Z,132.55
2023-12-30T21:00:41.557Z,140.50
2023-12-30T21:03:08.770Z,127.20
2023-12-30T21:05:36.438Z,116.70
2023-12-30T21:08:04.525Z,112.43
2023-12-30T21:10:31.792Z,121.95
2023-12-30T21:12:58.922Z,114.22
2023-12-30T21:15:26.925Z,124.50
2023-12-30T21:17:55.884Z,125.25
2023-12-30T21:20:23.170Z,115.65
2023-12-30T21:22:50.308Z,115.15
2023-12-30T21:25:23.771Z,119.00
2023-12-30T21:27:54.308Z,131.23
2023-12-30T21:30:23.569Z,112.18
2023-12-30T21:32:51.233Z,139.15
2023-12-30T21:35:20.029Z,135.32
2023-12-30T21:37:48.476Z,142.88
2023-12-30T21:40:18.161Z,141.15
2023-12-30T21:42:45.985Z,114.95
2023-12-30T21:45:13.188Z,122.22
2023-12-30T21:47:40.284Z,116.20
2023-12-30T21:50:08.437Z,94.85
2023-12-30T21:52:37.832Z,89.13
2023-12-30T21:55:07.269Z,101.95
2023-12-30T21:57:34.385Z,94.40
2023-12-30T22:00:02.223Z,104.72
2023-12-30T22:02:32.126Z,100.65
2023-12-30T22:04:59.579Z,94.20
2023-12-30T22:07:26.826Z,105.75
2023-12-30T22:09:53.930Z,110.18
2023-12-30T22:12:21.086Z,101.20
2023-12-30T22:14:48.563Z,97.95
2023-12-30T22:17:15.899Z,98.15
2023-12-30T22:19:45.230Z,96.32
2023-12-30T22:22:12.409Z,119.30
2023-12-30T22:24:39.528Z,110.75
2023-12-30T22:27:07.041Z,108.68
2023-12-30T22:29:35.068Z,109.97
2023-12-30T22:32:03.077Z,99.70
2023-12-30T22:34:30.198Z,102.60
2023-12-30T22:36:57.432Z,100.13
2023-12-30T22:39:24.837Z,111.10
2023-12-30T22:41:54.249Z,109.15
2023-12-30T22:44:22.923Z,107.43
2023-12-30T22:46:50.227Z,106.03
2023-12-30T22:49:17.529Z,116.25
2023-12-30T22:51:48.909Z,111.88
2023-12-30T22:54:17.067Z,109.95
2023-12-30T22:56:44.917Z,106.70
2023-12-30T22:59:19.295Z,118.97
2023-12-30T23:01:46.754Z,107.95
2023-12-30T23:04:14.452Z,106.32
2023-12-30T23:06:42.677Z,102.70
2023-12-30T23:09:09.981Z,106.82
2023-12-30T23:11:37.103Z,106.55
2023-12-30T23:14:04.380Z,99.70
2023-12-30T23:16:31.596Z,97.80
2023-12-30T23:18:59.160Z,88.03
2023-12-30T23:21:31.245Z,97.78
2023-12-30T23:24:01.727Z,94.20
2023-12-30T23:26:28.936Z,101.75
2023-12-30T23:28:56.024Z,90.35
2023-12-30T23:31:24.713Z,85.22
2023-12-30T23:33:52.044Z,90.07
2023-12-30T23:36:19.255Z,81.18
2023-12-30T23:38:49.485Z,83.50
2023-12-30T23:41:16.965Z,81.18
2023-12-30T23:43:44.161Z,79.35
2023-12-30T23:46:12.678Z,74.65
2023-12-30T23:48:40.037Z,69.20
2023-12-30T23:51:07.252Z,84.63
2023-12-30T23:53:36.136Z,72.75
2023-12-30T23:56:04.851Z,72.88
2023-12-30T23:58:32.974Z,67.97
